sensor_id;sensor_type;location;lat;lon;timestamp;P1;durP1;ratioP1;P2;durP2;ratioP2
62463;SDS011;48512;48.552;9.380;2023-04-03T00:01:32;16.42;;;8.20;;
62463;SDS011;48512;48.552;9.380;2023-04-03T00:04:02;18.08;;;8.65;;
62463;SDS011;48512;48.552;9.380;2023-04-03T00:06:28;15.88;;;7.93;;
62463;SDS011;48512;48.552;9.380;2023-04-03T00:08:54;16.13;;;7.80;;
62463;SDS011;48512;48.552;9.380;2023-04-03T00:11:20;19.30;;;9.07;;
62463;SDS011;48512;48.552;9.380;2023-04-03T00:13:46;14.95;;;7.90;;
62463;SDS011;48512;48.552;9.380;2023-04-03T00:16:12;15.52;;;7.90;;
62463;SDS011;48512;48.552;9.380;2023-04-03T00:18:38;15.95;;;7.78;;
62463;SDS011;48512;48.552;9.380;2023-04-03T00:21:05;17.95;;;7.30;;
62463;SDS011;48512;48.552;9.380;2023-04-03T00:23:32;16.38;;;7.75;;
62463;SDS011;48512;48.552;9.380;2023-04-03T00:25:59;15.80;;;7.55;;
62463;SDS011;48512;48.552;9.380;2023-04-03T00:28:25;15.45;;;7.47;;
62463;SDS011;48512;48.552;9.380;2023-04-03T00:30:52;17.02;;;8.13;;
62463;SDS011;48512;48.552;9.380;2023-04-03T00:33:18;17.48;;;8.88;;
62463;SDS011;48512;48.552;9.380;2023-04-03T00:35:47;17.20;;;8.37;;
62463;SDS011;48512;48.552;9.380;2023-04-03T00:38:14;15.13;;;7.78;;
62463;SDS011;48512;48.552;9.380;2023-04-03T00:40:42;14.07;;;7.53;;
62463;SDS011;48512;48.552;9.380;2023-04-03T00:43:17;16.73;;;8.02;;
62463;SDS011;48512;48.552;9.380;2023-04-03T00:45:47;12.77;;;7.95;;
62463;SDS011;48512;48.552;9.380;2023-04-03T00:48:25;15.27;;;7.95;;
62463;SDS011;48512;48.552;9.380;2023-04-03T00:50:55;13.75;;;7.82;;
62463;SDS011;48512;48.552;9.380;2023-04-03T00:53:23;14.70;;;7.47;;
62463;SDS011;48512;48.552;9.380;2023-04-03T00:55:53;12.38;;;7.15;;
62463;SDS011;48512;48.552;9.380;2023-04-03T00:58:22;17.17;;;7.55;;
62463;SDS011;48512;48.552;9.380;2023-04-03T01:00:57;13.50;;;7.28;;
62463;SDS011;48512;48.552;9.380;2023-04-03T01:03:25;13.80;;;7.20;;
62463;SDS011;48512;48.552;9.380;2023-04-03T01:05:53;16.50;;;7.43;;
62463;SDS011;48512;48.552;9.380;2023-04-03T01:08:19;14.23;;;7.07;;
62463;SDS011;48512;48.552;9.380;2023-04-03T01:10:46;13.88;;;6.93;;
62463;SDS011;48512;48.552;9.380;2023-04-03T01:13:20;14.70;;;7.45;;
62463;SDS011;48512;48.552;9.380;2023-04-03T01:15:55;15.15;;;6.88;;
62463;SDS011;48512;48.552;9.380;2023-04-03T01:18:22;17.98;;;7.40;;
62463;SDS011;48512;48.552;9.380;2023-04-03T01:23:22;12.35;;;7.07;;
62463;SDS011;48512;48.552;9.380;2023-04-03T01:26:08;16.40;;;7.68;;
62463;SDS011;48512;48.552;9.380;2023-04-03T01:28:37;13.52;;;7.38;;
62463;SDS011;48512;48.552;9.380;2023-04-03T01:33:53;14.00;;;6.57;;
62463;SDS011;48512;48.552;9.380;2023-04-03T01:36:22;14.93;;;7.43;;
62463;SDS011;48512;48.552;9.380;2023-04-03T01:38:53;11.45;;;6.75;;
62463;SDS011;48512;48.552;9.380;2023-04-03T01:41:20;14.32;;;6.55;;
62463;SDS011;48512;48.552;9.380;2023-04-03T01:43:47;14.20;;;7.45;;
62463;SDS011;48512;48.552;9.380;2023-04-03T01:46:15;13.35;;;7.28;;
62463;SDS011;48512;48.552;9.380;2023-04-03T01:48:42;12.95;;;7.07;;
62463;SDS011;48512;48.552;9.380;2023-04-03T01:51:09;13.82;;;7.10;;
62463;SDS011;48512;48.552;9.380;2023-04-03T01:53:35;15.40;;;7.38;;
62463;SDS011;48512;48.552;9.380;2023-04-03T01:56:01;10.40;;;6.88;;
62463;SDS011;48512;48.552;9.380;2023-04-03T01:58:29;11.98;;;6.53;;
62463;SDS011;48512;48.552;9.380;2023-04-03T02:00:55;11.32;;;6.78;;
62463;SDS011;48512;48.552;9.380;2023-04-03T02:03:22;11.50;;;6.70;;
62463;SDS011;48512;48.552;9.380;2023-04-03T02:05:48;11.43;;;6.97;;
62463;SDS011;48512;48.552;9.380;2023-04-03T02:08:15;13.95;;;6.55;;
62463;SDS011;48512;48.552;9.380;2023-04-03T02:10:47;11.77;;;6.80;;
62463;SDS011;48512;48.552;9.380;2023-04-03T02:13:14;14.10;;;6.80;;
62463;SDS011;48512;48.552;9.380;2023-04-03T02:15:41;12.30;;;6.68;;
62463;SDS011;48512;48.552;9.380;2023-04-03T02:18:07;10.57;;;6.50;;
62463;SDS011;48512;48.552;9.380;2023-04-03T02:20:34;9.02;;;5.82;;
62463;SDS011;48512;48.552;9.380;2023-04-03T02:23:00;10.73;;;6.18;;
62463;SDS011;48512;48.552;9.380;2023-04-03T02:25:27;10.75;;;6.45;;
62463;SDS011;48512;48.552;9.380;2023-04-03T02:27:53;13.20;;;6.53;;
62463;SDS011;48512;48.552;9.380;2023-04-03T02:30:19;10.45;;;6.35;;
62463;SDS011;48512;48.552;9.380;2023-04-03T02:32:45;14.13;;;6.30;;
62463;SDS011;48512;48.552;9.380;2023-04-03T02:35:11;11.98;;;6.13;;
62463;SDS011;48512;48.552;9.380;2023-04-03T02:37:39;13.27;;;6.85;;
62463;SDS011;48512;48.552;9.380;2023-04-03T02:40:06;13.07;;;6.65;;
62463;SDS011;48512;48.552;9.380;2023-04-03T02:42:34;11.80;;;6.70;;
62463;SDS011;48512;48.552;9.380;2023-04-03T02:45:02;11.98;;;6.47;;
62463;SDS011;48512;48.552;9.380;2023-04-03T02:47:29;13.10;;;6.55;;
62463;SDS011;48512;48.552;9.380;2023-04-03T02:49:55;13.48;;;6.85;;
62463;SDS011;48512;48.552;9.380;2023-04-03T02:52:21;12.60;;;6.88;;
62463;SDS011;48512;48.552;9.380;2023-04-03T02:54:49;12.07;;;6.63;;
62463;SDS011;48512;48.552;9.380;2023-04-03T02:57:15;9.55;;;6.47;;
62463;SDS011;48512;48.552;9.380;2023-04-03T02:59:41;11.32;;;6.57;;
62463;SDS011;48512;48.552;9.380;2023-04-03T03:02:09;10.38;;;6.63;;
62463;SDS011;48512;48.552;9.380;2023-04-03T03:04:36;12.05;;;5.93;;
62463;SDS011;48512;48.552;9.380;2023-04-03T03:07:02;11.02;;;6.50;;
62463;SDS011;48512;48.552;9.380;2023-04-03T03:09:29;13.40;;;6.85;;
62463;SDS011;48512;48.552;9.380;2023-04-03T03:11:55;9.48;;;5.97;;
62463;SDS011;48512;48.552;9.380;2023-04-03T03:14:22;12.38;;;6.28;;
62463;SDS011;48512;48.552;9.380;2023-04-03T03:16:48;11.95;;;6.45;;
62463;SDS011;48512;48.552;9.380;2023-04-03T03:19:15;10.70;;;6.30;;
62463;SDS011;48512;48.552;9.380;2023-04-03T03:21:41;11.38;;;6.45;;
62463;SDS011;48512;48.552;9.380;2023-04-03T03:24:07;9.73;;;5.97;;
62463;SDS011;48512;48.552;9.380;2023-04-03T03:26:34;9.57;;;5.63;;
62463;SDS011;48512;48.552;9.380;2023-04-03T03:29:01;12.32;;;6.38;;
62463;SDS011;48512;48.552;9.380;2023-04-03T03:31:28;10.07;;;5.90;;
62463;SDS011;48512;48.552;9.380;2023-04-03T03:33:55;9.48;;;5.63;;
62463;SDS011;48512;48.552;9.380;2023-04-03T03:36:22;10.15;;;5.78;;
62463;SDS011;48512;48.552;9.380;2023-04-03T03:38:48;9.10;;;5.60;;
62463;SDS011;48512;48.552;9.380;2023-04-03T03:41:14;11.95;;;6.03;;
62463;SDS011;48512;48.552;9.380;2023-04-03T03:43:42;10.60;;;5.50;;
62463;SDS011;48512;48.552;9.380;2023-04-03T03:46:09;12.52;;;6.00;;
62463;SDS011;48512;48.552;9.380;2023-04-03T03:48:36;10.40;;;6.25;;
62463;SDS011;48512;48.552;9.380;2023-04-03T03:51:02;12.48;;;5.93;;
62463;SDS011;48512;48.552;9.380;2023-04-03T03:53:32;12.27;;;6.22;;
62463;SDS011;48512;48.552;9.380;2023-04-03T03:56:03;9.27;;;5.85;;
62463;SDS011;48512;48.552;9.380;2023-04-03T03:58:31;11.32;;;6.50;;
62463;SDS011;48512;48.552;9.380;2023-04-03T04:01:04;17.25;;;7.88;;
62463;SDS011;48512;48.552;9.380;2023-04-03T04:03:32;12.57;;;6.75;;
62463;SDS011;48512;48.552;9.380;2023-04-03T04:05:59;13.77;;;6.72;;
62463;SDS011;48512;48.552;9.380;2023-04-03T04:08:25;14.25;;;6.60;;
62463;SDS011;48512;48.552;9.380;2023-04-03T04:10:51;12.55;;;6.75;;
62463;SDS011;48512;48.552;9.380;2023-04-03T04:13:18;10.98;;;6.30;;
62463;SDS011;48512;48.552;9.380;2023-04-03T04:15:44;15.23;;;6.95;;
62463;SDS011;48512;48.552;9.380;2023-04-03T04:18:10;13.27;;;6.57;;
62463;SDS011;48512;48.552;9.380;2023-04-03T04:20:37;15.43;;;7.07;;
62463;SDS011;48512;48.552;9.380;2023-04-03T04:23:03;28.23;;;9.65;;
62463;SDS011;48512;48.552;9.380;2023-04-03T04:25:30;20.88;;;8.30;;
62463;SDS011;48512;48.552;9.380;2023-04-03T04:27:57;14.43;;;6.07;;
62463;SDS011;48512;48.552;9.380;2023-04-03T04:30:23;17.05;;;7.30;;
62463;SDS011;48512;48.552;9.380;2023-04-03T04:32:50;30.83;;;9.95;;
62463;SDS011;48512;48.552;9.380;2023-04-03T04:35:17;16.88;;;7.13;;
62463;SDS011;48512;48.552;9.380;2023-04-03T04:37:46;11.02;;;5.35;;
62463;SDS011;48512;48.552;9.380;2023-04-03T04:40:12;14.27;;;7.07;;
62463;SDS011;48512;48.552;9.380;2023-04-03T04:42:38;10.75;;;5.95;;
62463;SDS011;48512;48.552;9.380;2023-04-03T04:45:06;8.88;;;5.60;;
62463;SDS011;48512;48.552;9.380;2023-04-03T04:47:33;10.68;;;5.45;;
62463;SDS011;48512;48.552;9.380;2023-04-03T04:50:00;9.98;;;5.40;;
62463;SDS011;48512;48.552;9.380;2023-04-03T04:52:26;9.13;;;5.55;;
62463;SDS011;48512;48.552;9.380;2023-04-03T04:54:53;9.35;;;5.43;;
62463;SDS011;48512;48.552;9.380;2023-04-03T04:57:19;6.55;;;4.63;;
62463;SDS011;48512;48.552;9.380;2023-04-03T04:59:46;8.02;;;5.47;;
62463;SDS011;48512;48.552;9.380;2023-04-03T05:02:13;9.25;;;4.85;;
62463;SDS011;48512;48.552;9.380;2023-04-03T05:04:41;6.50;;;4.50;;
62463;SDS011;48512;48.552;9.380;2023-04-03T05:07:13;7.05;;;5.03;;
62463;SDS011;48512;48.552;9.380;2023-04-03T05:09:39;7.75;;;4.30;;
62463;SDS011;48512;48.552;9.380;2023-04-03T05:12:08;7.78;;;4.20;;
62463;SDS011;48512;48.552;9.380;2023-04-03T05:14:40;6.97;;;4.25;;
62463;SDS011;48512;48.552;9.380;2023-04-03T05:17:08;6.60;;;3.95;;
62463;SDS011;48512;48.552;9.380;2023-04-03T05:22:05;4.78;;;3.60;;
62463;SDS011;48512;48.552;9.380;2023-04-03T05:24:32;4.93;;;3.67;;
62463;SDS011;48512;48.552;9.380;2023-04-03T05:26:59;5.40;;;3.72;;
62463;SDS011;48512;48.552;9.380;2023-04-03T05:29:25;9.77;;;3.95;;
62463;SDS011;48512;48.552;9.380;2023-04-03T05:31:52;5.63;;;3.30;;
62463;SDS011;48512;48.552;9.380;2023-04-03T05:34:18;8.40;;;3.92;;
62463;SDS011;48512;48.552;9.380;2023-04-03T05:36:47;5.88;;;3.53;;
62463;SDS011;48512;48.552;9.380;2023-04-03T05:39:15;4.93;;;3.45;;
62463;SDS011;48512;48.552;9.380;2023-04-03T05:41:43;6.70;;;4.15;;
62463;SDS011;48512;48.552;9.380;2023-04-03T05:44:09;7.40;;;3.85;;
62463;SDS011;48512;48.552;9.380;2023-04-03T05:46:35;4.13;;;3.35;;
62463;SDS011;48512;48.552;9.380;2023-04-03T05:49:05;5.35;;;3.25;;
62463;SDS011;48512;48.552;9.380;2023-04-03T05:51:35;6.07;;;3.17;;
62463;SDS011;48512;48.552;9.380;2023-04-03T05:54:27;5.30;;;3.72;;
62463;SDS011;48512;48.552;9.380;2023-04-03T05:57:02;6.28;;;4.10;;
62463;SDS011;48512;48.552;9.380;2023-04-03T05:59:28;5.28;;;4.10;;
62463;SDS011;48512;48.552;9.380;2023-04-03T06:01:57;7.70;;;3.40;;
62463;SDS011;48512;48.552;9.380;2023-04-03T06:04:24;4.78;;;3.42;;
62463;SDS011;48512;48.552;9.380;2023-04-03T06:06:51;6.35;;;4.13;;
62463;SDS011;48512;48.552;9.380;2023-04-03T06:09:20;12.95;;;5.05;;
62463;SDS011;48512;48.552;9.380;2023-04-03T06:11:47;5.93;;;3.80;;
62463;SDS011;48512;48.552;9.380;2023-04-03T06:14:15;7.68;;;4.05;;
62463;SDS011;48512;48.552;9.380;2023-04-03T06:16:41;6.13;;;4.05;;
62463;SDS011;48512;48.552;9.380;2023-04-03T06:19:07;5.00;;;3.78;;
62463;SDS011;48512;48.552;9.380;2023-04-03T06:21:37;8.18;;;4.57;;
62463;SDS011;48512;48.552;9.380;2023-04-03T06:24:04;4.90;;;3.70;;
62463;SDS011;48512;48.552;9.380;2023-04-03T06:26:32;5.45;;;3.78;;
62463;SDS011;48512;48.552;9.380;2023-04-03T06:28:59;5.95;;;4.22;;
62463;SDS011;48512;48.552;9.380;2023-04-03T06:31:25;6.30;;;3.95;;
62463;SDS011;48512;48.552;9.380;2023-04-03T06:33:51;5.78;;;4.15;;
62463;SDS011;48512;48.552;9.380;2023-04-03T06:36:18;8.88;;;4.22;;
62463;SDS011;48512;48.552;9.380;2023-04-03T06:38:46;7.18;;;4.80;;
62463;SDS011;48512;48.552;9.380;2023-04-03T06:41:13;5.10;;;4.40;;
62463;SDS011;48512;48.552;9.380;2023-04-03T06:43:40;5.57;;;4.10;;
62463;SDS011;48512;48.552;9.380;2023-04-03T06:46:06;6.28;;;4.03;;
62463;SDS011;48512;48.552;9.380;2023-04-03T06:48:32;5.38;;;4.00;;
62463;SDS011;48512;48.552;9.380;2023-04-03T06:50:58;6.47;;;4.18;;
62463;SDS011;48512;48.552;9.380;2023-04-03T06:53:24;13.15;;;5.10;;
62463;SDS011;48512;48.552;9.380;2023-04-03T06:55:50;7.72;;;4.22;;
62463;SDS011;48512;48.552;9.380;2023-04-03T06:58:17;5.90;;;3.72;;
62463;SDS011;48512;48.552;9.380;2023-04-03T07:00:43;4.72;;;3.75;;
62463;SDS011;48512;48.552;9.380;2023-04-03T07:03:09;7.93;;;4.00;;
62463;SDS011;48512;48.552;9.380;2023-04-03T07:05:35;6.47;;;4.00;;
62463;SDS011;48512;48.552;9.380;2023-04-03T07:08:01;7.00;;;4.10;;
62463;SDS011;48512;48.552;9.380;2023-04-03T07:10:28;6.40;;;4.88;;
62463;SDS011;48512;48.552;9.380;2023-04-03T07:12:54;9.10;;;5.18;;
62463;SDS011;48512;48.552;9.380;2023-04-03T07:15:20;6.18;;;4.20;;
62463;SDS011;48512;48.552;9.380;2023-04-03T07:17:46;4.95;;;3.95;;
62463;SDS011;48512;48.552;9.380;2023-04-03T07:20:12;6.65;;;3.72;;
62463;SDS011;48512;48.552;9.380;2023-04-03T07:22:38;4.40;;;3.55;;
62463;SDS011;48512;48.552;9.380;2023-04-03T07:25:05;8.60;;;4.43;;
62463;SDS011;48512;48.552;9.380;2023-04-03T07:27:33;8.07;;;3.95;;
62463;SDS011;48512;48.552;9.380;2023-04-03T07:29:59;4.55;;;3.33;;
62463;SDS011;48512;48.552;9.380;2023-04-03T07:32:25;5.20;;;3.92;;
62463;SDS011;48512;48.552;9.380;2023-04-03T07:34:51;4.38;;;3.55;;
62463;SDS011;48512;48.552;9.380;2023-04-03T07:37:18;5.53;;;3.63;;
62463;SDS011;48512;48.552;9.380;2023-04-03T07:39:44;5.15;;;3.75;;
62463;SDS011;48512;48.552;9.380;2023-04-03T07:42:10;6.50;;;3.85;;
62463;SDS011;48512;48.552;9.380;2023-04-03T07:44:37;4.25;;;3.83;;
62463;SDS011;48512;48.552;9.380;2023-04-03T07:47:04;4.15;;;3.63;;
62463;SDS011;48512;48.552;9.380;2023-04-03T07:49:30;7.05;;;4.63;;
62463;SDS011;48512;48.552;9.380;2023-04-03T07:51:57;10.60;;;4.60;;
62463;SDS011;48512;48.552;9.380;2023-04-03T07:54:24;4.57;;;3.80;;
62463;SDS011;48512;48.552;9.380;2023-04-03T07:56:50;5.72;;;3.97;;
62463;SDS011;48512;48.552;9.380;2023-04-03T07:59:16;6.30;;;4.13;;
62463;SDS011;48512;48.552;9.380;2023-04-03T08:01:42;8.40;;;3.85;;
62463;SDS011;48512;48.552;9.380;2023-04-03T08:04:09;5.15;;;3.90;;
62463;SDS011;48512;48.552;9.380;2023-04-03T08:06:35;6.30;;;3.83;;
62463;SDS011;48512;48.552;9.380;2023-04-03T08:09:02;5.50;;;3.80;;
62463;SDS011;48512;48.552;9.380;2023-04-03T08:11:30;4.95;;;3.65;;
62463;SDS011;48512;48.552;9.380;2023-04-03T08:13:56;6.15;;;4.38;;
62463;SDS011;48512;48.552;9.380;2023-04-03T08:16:23;6.90;;;4.70;;
62463;SDS011;48512;48.552;9.380;2023-04-03T08:18:52;7.10;;;4.95;;
62463;SDS011;48512;48.552;9.380;2023-04-03T08:21:19;19.77;;;9.27;;
62463;SDS011;48512;48.552;9.380;2023-04-03T08:23:47;11.50;;;5.68;;
62463;SDS011;48512;48.552;9.380;2023-04-03T08:26:16;24.52;;;11.02;;
62463;SDS011;48512;48.552;9.380;2023-04-03T08:28:44;14.15;;;7.20;;
62463;SDS011;48512;48.552;9.380;2023-04-03T08:31:12;16.00;;;7.00;;
62463;SDS011;48512;48.552;9.380;2023-04-03T08:33:41;18.35;;;8.50;;
62463;SDS011;48512;48.552;9.380;2023-04-03T08:36:14;18.77;;;8.73;;
62463;SDS011;48512;48.552;9.380;2023-04-03T08:38:43;30.73;;;11.48;;
62463;SDS011;48512;48.552;9.380;2023-04-03T08:44:04;20.25;;;8.55;;
62463;SDS011;48512;48.552;9.380;2023-04-03T08:49:33;13.18;;;7.57;;
62463;SDS011;48512;48.552;9.380;2023-04-03T08:52:10;16.45;;;9.50;;
62463;SDS011;48512;48.552;9.380;2023-04-03T08:55:22;12.77;;;8.10;;
62463;SDS011;48512;48.552;9.380;2023-04-03T08:57:30;13.13;;;7.13;;
62463;SDS011;48512;48.552;9.380;2023-04-03T09:00:03;15.60;;;9.32;;
62463;SDS011;48512;48.552;9.380;2023-04-03T09:02:55;12.32;;;5.13;;
62463;SDS011;48512;48.552;9.380;2023-04-03T09:08:29;8.93;;;5.38;;
62463;SDS011;48512;48.552;9.380;2023-04-03T09:16:25;5.22;;;4.03;;
62463;SDS011;48512;48.552;9.380;2023-04-03T09:19:07;5.80;;;4.80;;
62463;SDS011;48512;48.552;9.380;2023-04-03T09:21:37;7.82;;;5.35;;
62463;SDS011;48512;48.552;9.380;2023-04-03T09:24:09;7.60;;;5.95;;
62463;SDS011;48512;48.552;9.380;2023-04-03T09:26:45;7.40;;;5.78;;
62463;SDS011;48512;48.552;9.380;2023-04-03T09:29:21;5.82;;;4.20;;
62463;SDS011;48512;48.552;9.380;2023-04-03T09:31:50;7.85;;;4.90;;
62463;SDS011;48512;48.552;9.380;2023-04-03T09:36:53;7.47;;;5.53;;
62463;SDS011;48512;48.552;9.380;2023-04-03T09:39:22;9.25;;;5.55;;
62463;SDS011;48512;48.552;9.380;2023-04-03T09:44:23;10.23;;;4.53;;
62463;SDS011;48512;48.552;9.380;2023-04-03T09:46:54;7.93;;;4.63;;
62463;SDS011;48512;48.552;9.380;2023-04-03T09:49:21;6.75;;;4.70;;
62463;SDS011;48512;48.552;9.380;2023-04-03T09:51:47;6.72;;;4.53;;
62463;SDS011;48512;48.552;9.380;2023-04-03T09:54:24;4.85;;;3.92;;
62463;SDS011;48512;48.552;9.380;2023-04-03T09:56:51;7.88;;;4.18;;
62463;SDS011;48512;48.552;9.380;2023-04-03T09:59:19;6.72;;;4.05;;
62463;SDS011;48512;48.552;9.380;2023-04-03T10:01:56;4.60;;;3.40;;
62463;SDS011;48512;48.552;9.380;2023-04-03T10:04:36;5.93;;;4.03;;
62463;SDS011;48512;48.552;9.380;2023-04-03T10:07:26;5.15;;;4.05;;
62463;SDS011;48512;48.552;9.380;2023-04-03T10:09:59;5.80;;;4.50;;
62463;SDS011;48512;48.552;9.380;2023-04-03T10:12:43;5.35;;;4.30;;
62463;SDS011;48512;48.552;9.380;2023-04-03T10:15:13;7.28;;;5.45;;
62463;SDS011;48512;48.552;9.380;2023-04-03T10:20:27;5.65;;;4.70;;
62463;SDS011;48512;48.552;9.380;2023-04-03T10:25:55;5.03;;;3.72;;
62463;SDS011;48512;48.552;9.380;2023-04-03T10:33:37;4.30;;;3.90;;
62463;SDS011;48512;48.552;9.380;2023-04-03T10:36:27;4.22;;;3.50;;
62463;SDS011;48512;48.552;9.380;2023-04-03T10:39:08;9.48;;;5.90;;
62463;SDS011;48512;48.552;9.380;2023-04-03T10:41:51;5.22;;;3.78;;
62463;SDS011;48512;48.552;9.380;2023-04-03T10:47:46;7.32;;;5.43;;
62463;SDS011;48512;48.552;9.380;2023-04-03T10:56:01;5.78;;;4.22;;
62463;SDS011;48512;48.552;9.380;2023-04-03T10:58:43;4.38;;;3.97;;
62463;SDS011;48512;48.552;9.380;2023-04-03T11:01:16;6.07;;;4.88;;
62463;SDS011;48512;48.552;9.380;2023-04-03T11:03:49;4.53;;;3.50;;
62463;SDS011;48512;48.552;9.380;2023-04-03T11:06:21;3.25;;;2.88;;
62463;SDS011;48512;48.552;9.380;2023-04-03T11:08:53;3.85;;;3.15;;
62463;SDS011;48512;48.552;9.380;2023-04-03T11:11:30;4.30;;;3.10;;
62463;SDS011;48512;48.552;9.380;2023-04-03T11:17:04;5.50;;;2.95;;
62463;SDS011;48512;48.552;9.380;2023-04-03T11:19:38;5.28;;;3.28;;
62463;SDS011;48512;48.552;9.380;2023-04-03T11:30:29;3.63;;;2.70;;
62463;SDS011;48512;48.552;9.380;2023-04-03T11:35:55;3.28;;;2.90;;
62463;SDS011;48512;48.552;9.380;2023-04-03T11:38:28;4.35;;;3.05;;
62463;SDS011;48512;48.552;9.380;2023-04-03T11:41:05;3.17;;;2.72;;
62463;SDS011;48512;48.552;9.380;2023-04-03T11:43:33;4.00;;;3.03;;
62463;SDS011;48512;48.552;9.380;2023-04-03T11:46:05;6.03;;;3.53;;
62463;SDS011;48512;48.552;9.380;2023-04-03T11:51:02;3.13;;;2.83;;
62463;SDS011;48512;48.552;9.380;2023-04-03T11:53:53;4.25;;;3.03;;
62463;SDS011;48512;48.552;9.380;2023-04-03T12:01:51;3.90;;;3.10;;
62463;SDS011;48512;48.552;9.380;2023-04-03T12:04:20;6.32;;;2.90;;
62463;SDS011;48512;48.552;9.380;2023-04-03T12:07:01;3.30;;;2.70;;
62463;SDS011;48512;48.552;9.380;2023-04-03T12:15:26;5.47;;;3.55;;
62463;SDS011;48512;48.552;9.380;2023-04-03T12:21:09;4.45;;;3.03;;
62463;SDS011;48512;48.552;9.380;2023-04-03T12:23:55;5.93;;;2.83;;
62463;SDS011;48512;48.552;9.380;2023-04-03T12:26:44;5.13;;;3.70;;
62463;SDS011;48512;48.552;9.380;2023-04-03T12:29:24;5.75;;;3.65;;
62463;SDS011;48512;48.552;9.380;2023-04-03T12:42:56;6.70;;;3.22;;
62463;SDS011;48512;48.552;9.380;2023-04-03T12:45:48;3.00;;;2.30;;
62463;SDS011;48512;48.552;9.380;2023-04-03T12:48:22;3.53;;;2.53;;
62463;SDS011;48512;48.552;9.380;2023-04-03T12:50:52;3.92;;;2.90;;
62463;SDS011;48512;48.552;9.380;2023-04-03T12:53:19;3.92;;;2.40;;
62463;SDS011;48512;48.552;9.380;2023-04-03T12:55:55;4.35;;;3.10;;
62463;SDS011;48512;48.552;9.380;2023-04-03T12:58:42;5.95;;;3.30;;
62463;SDS011;48512;48.552;9.380;2023-04-03T13:03:34;5.03;;;3.00;;
62463;SDS011;48512;48.552;9.380;2023-04-03T13:06:03;3.38;;;2.70;;
62463;SDS011;48512;48.552;9.380;2023-04-03T13:08:30;4.35;;;2.80;;
62463;SDS011;48512;48.552;9.380;2023-04-03T13:10:58;4.38;;;3.30;;
62463;SDS011;48512;48.552;9.380;2023-04-03T13:13:37;5.35;;;3.65;;
62463;SDS011;48512;48.552;9.380;2023-04-03T13:16:08;4.13;;;3.45;;
62463;SDS011;48512;48.552;9.380;2023-04-03T13:18:37;5.60;;;3.30;;
62463;SDS011;48512;48.552;9.380;2023-04-03T13:21:23;4.07;;;3.22;;
62463;SDS011;48512;48.552;9.380;2023-04-03T13:23:57;5.22;;;3.65;;
62463;SDS011;48512;48.552;9.380;2023-04-03T13:26:28;5.43;;;3.20;;
62463;SDS011;48512;48.552;9.380;2023-04-03T13:28:58;3.38;;;3.08;;
62463;SDS011;48512;48.552;9.380;2023-04-03T13:31:38;3.38;;;2.80;;
62463;SDS011;48512;48.552;9.380;2023-04-03T13:37:18;5.38;;;3.10;;
62463;SDS011;48512;48.552;9.380;2023-04-03T13:39:28;4.70;;;3.30;;
62463;SDS011;48512;48.552;9.380;2023-04-03T13:42:14;5.18;;;4.47;;
62463;SDS011;48512;48.552;9.380;2023-04-03T13:44:48;5.55;;;3.70;;
62463;SDS011;48512;48.552;9.380;2023-04-03T13:47:37;4.43;;;2.92;;
62463;SDS011;48512;48.552;9.380;2023-04-03T13:52:48;4.03;;;3.50;;
62463;SDS011;48512;48.552;9.380;2023-04-03T13:58:22;6.63;;;3.40;;
62463;SDS011;48512;48.552;9.380;2023-04-03T14:00:54;4.38;;;3.28;;
62463;SDS011;48512;48.552;9.380;2023-04-03T14:03:38;5.53;;;4.30;;
62463;SDS011;48512;48.552;9.380;2023-04-03T14:06:17;5.03;;;3.65;;
62463;SDS011;48512;48.552;9.380;2023-04-03T14:08:44;6.65;;;3.88;;
62463;SDS011;48512;48.552;9.380;2023-04-03T14:11:12;5.25;;;3.58;;
62463;SDS011;48512;48.552;9.380;2023-04-03T14:13:45;8.40;;;4.38;;
62463;SDS011;48512;48.552;9.380;2023-04-03T14:16:13;4.60;;;3.67;;
62463;SDS011;48512;48.552;9.380;2023-04-03T14:18:48;4.28;;;3.88;;
62463;SDS011;48512;48.552;9.380;2023-04-03T14:21:16;11.13;;;5.43;;
62463;SDS011;48512;48.552;9.380;2023-04-03T14:23:44;6.10;;;4.05;;
62463;SDS011;48512;48.552;9.380;2023-04-03T14:26:14;5.80;;;3.53;;
62463;SDS011;48512;48.552;9.380;2023-04-03T14:28:44;6.75;;;3.55;;
62463;SDS011;48512;48.552;9.380;2023-04-03T14:31:11;7.95;;;3.70;;
62463;SDS011;48512;48.552;9.380;2023-04-03T14:33:38;4.70;;;3.50;;
62463;SDS011;48512;48.552;9.380;2023-04-03T14:36:10;4.53;;;3.25;;
62463;SDS011;48512;48.552;9.380;2023-04-03T14:38:39;7.57;;;4.53;;
62463;SDS011;48512;48.552;9.380;2023-04-03T14:41:07;8.38;;;3.92;;
62463;SDS011;48512;48.552;9.380;2023-04-03T14:43:33;5.47;;;3.65;;
62463;SDS011;48512;48.552;9.380;2023-04-03T14:46:00;6.15;;;3.63;;
62463;SDS011;48512;48.552;9.380;2023-04-03T14:48:27;6.25;;;3.60;;
62463;SDS011;48512;48.552;9.380;2023-04-03T14:50:53;5.75;;;3.30;;
62463;SDS011;48512;48.552;9.380;2023-04-03T14:53:20;3.92;;;3.47;;
62463;SDS011;48512;48.552;9.380;2023-04-03T14:55:51;5.70;;;3.45;;
62463;SDS011;48512;48.552;9.380;2023-04-03T14:58:19;4.45;;;3.85;;
62463;SDS011;48512;48.552;9.380;2023-04-03T15:00:46;5.63;;;3.90;;
62463;SDS011;48512;48.552;9.380;2023-04-03T15:03:17;5.65;;;4.50;;
62463;SDS011;48512;48.552;9.380;2023-04-03T15:05:45;6.25;;;4.93;;
62463;SDS011;48512;48.552;9.380;2023-04-03T15:08:16;5.45;;;3.90;;
62463;SDS011;48512;48.552;9.380;2023-04-03T15:10:43;6.15;;;4.40;;
62463;SDS011;48512;48.552;9.380;2023-04-03T15:13:10;4.78;;;3.88;;
62463;SDS011;48512;48.552;9.380;2023-04-03T15:15:38;6.72;;;4.68;;
62463;SDS011;48512;48.552;9.380;2023-04-03T15:18:04;10.13;;;4.25;;
62463;SDS011;48512;48.552;9.380;2023-04-03T15:20:31;6.85;;;4.18;;
62463;SDS011;48512;48.552;9.380;2023-04-03T15:22:59;16.15;;;6.35;;
62463;SDS011;48512;48.552;9.380;2023-04-03T15:25:30;8.80;;;4.10;;
62463;SDS011;48512;48.552;9.380;2023-04-03T15:27:57;9.68;;;5.13;;
62463;SDS011;48512;48.552;9.380;2023-04-03T15:30:23;9.20;;;4.72;;
62463;SDS011;48512;48.552;9.380;2023-04-03T15:32:50;33.75;;;10.30;;
62463;SDS011;48512;48.552;9.380;2023-04-03T15:35:16;25.50;;;7.82;;
62463;SDS011;48512;48.552;9.380;2023-04-03T15:37:42;9.52;;;4.78;;
62463;SDS011;48512;48.552;9.380;2023-04-03T15:40:09;10.70;;;4.70;;
62463;SDS011;48512;48.552;9.380;2023-04-03T15:42:36;13.02;;;5.07;;
62463;SDS011;48512;48.552;9.380;2023-04-03T15:45:03;6.97;;;4.35;;
62463;SDS011;48512;48.552;9.380;2023-04-03T15:47:29;8.82;;;4.28;;
62463;SDS011;48512;48.552;9.380;2023-04-03T15:49:56;7.95;;;4.75;;
62463;SDS011;48512;48.552;9.380;2023-04-03T15:52:22;7.28;;;4.45;;
62463;SDS011;48512;48.552;9.380;2023-04-03T15:54:48;7.90;;;4.13;;
62463;SDS011;48512;48.552;9.380;2023-04-03T15:57:15;7.03;;;4.13;;
62463;SDS011;48512;48.552;9.380;2023-04-03T15:59:41;7.28;;;4.20;;
62463;SDS011;48512;48.552;9.380;2023-04-03T16:02:07;6.53;;;4.78;;
62463;SDS011;48512;48.552;9.380;2023-04-03T16:04:36;10.20;;;5.90;;
62463;SDS011;48512;48.552;9.380;2023-04-03T16:07:03;8.45;;;4.57;;
62463;SDS011;48512;48.552;9.380;2023-04-03T16:09:30;7.43;;;3.97;;
62463;SDS011;48512;48.552;9.380;2023-04-03T16:11:58;5.35;;;4.00;;
62463;SDS011;48512;48.552;9.380;2023-04-03T16:14:24;10.35;;;4.68;;
62463;SDS011;48512;48.552;9.380;2023-04-03T16:16:50;8.80;;;4.38;;
62463;SDS011;48512;48.552;9.380;2023-04-03T16:19:17;9.93;;;4.55;;
62463;SDS011;48512;48.552;9.380;2023-04-03T16:21:43;9.00;;;5.10;;
62463;SDS011;48512;48.552;9.380;2023-04-03T16:24:09;16.85;;;5.78;;
62463;SDS011;48512;48.552;9.380;2023-04-03T16:26:35;7.22;;;4.72;;
62463;SDS011;48512;48.552;9.380;2023-04-03T16:29:02;7.78;;;4.53;;
62463;SDS011;48512;48.552;9.380;2023-04-03T16:31:28;11.73;;;6.18;;
62463;SDS011;48512;48.552;9.380;2023-04-03T16:33:54;13.23;;;4.90;;
62463;SDS011;48512;48.552;9.380;2023-04-03T16:36:21;7.35;;;4.40;;